createdAt,value
2017-04-24T00:00:27.141Z,64.00
2017-04-24T00:01:27.634Z,63.40
2017-04-24T00:02:27.457Z,63.50
2017-04-24T00:03:27.325Z,63.50
2017-04-24T00:04:27.065Z,63.70
2017-04-24T00:05:27.029Z,63.90
2017-04-24T00:06:26.813Z,64.50
2017-04-24T00:07:26.649Z,65.70
2017-04-24T00:08:26.681Z,66.20
2017-04-24T00:09:26.453Z,66.80
2017-04-24T00:10:26.217Z,67.30
2017-04-24T00:11:25.993Z,68.20
2017-04-24T00:12:25.805Z,68.80
2017-04-24T00:13:26.737Z,68.60
2017-04-24T00:14:27.274Z,68.70
2017-04-24T00:15:27.046Z,68.80
2017-04-24T00:16:27.546Z,69.00
2017-04-24T00:17:27.381Z,69.10
2017-04-24T00:18:27.945Z,68.90
2017-04-24T00:19:27.857Z,68.60
2017-04-24T00:20:27.636Z,68.40
2017-04-24T00:21:27.389Z,68.40
2017-04-24T00:22:27.989Z,67.80
2017-04-24T00:23:27.770Z,67.80
2017-04-24T00:24:27.565Z,68.30
2017-04-24T00:25:27.329Z,68.30
2017-04-24T00:26:27.809Z,68.50
2017-04-24T00:27:27.581Z,68.30
2017-04-24T00:28:27.489Z,68.60
2017-04-24T00:29:28.005Z,68.90
2017-04-24T00:30:27.752Z,69.00
2017-04-24T00:31:28.621Z,68.80
2017-04-24T00:32:28.424Z,69.00
2017-04-24T00:33:28.206Z,69.10
2017-04-24T00:34:28.176Z,68.70
2017-04-24T00:35:28.790Z,68.50
2017-04-24T00:36:28.561Z,68.60
2017-04-24T00:37:28.345Z,67.80
2017-04-24T00:38:28.180Z,67.20
2017-04-24T00:39:28.268Z,66.60
2017-04-24T00:40:28.048Z,66.50
2017-04-24T00:41:27.920Z,66.20
2017-04-24T00:42:27.709Z,65.60
2017-04-24T00:43:28.709Z,65.70
2017-04-24T00:44:28.920Z,66.40
2017-04-24T00:45:28.673Z,66.70
2017-04-24T00:46:29.192Z,66.50
2017-04-24T00:47:29.716Z,66.90
2017-04-24T00:48:30.276Z,67.20
2017-04-24T00:49:30.101Z,66.90
2017-04-24T00:50:30.353Z,66.50
2017-04-24T00:51:30.121Z,66.70
2017-04-24T00:52:29.948Z,66.60
2017-04-24T00:53:30.504Z,66.30
2017-04-24T00:54:31.136Z,65.90
2017-04-24T00:55:30.924Z,65.90
2017-04-24T00:56:30.860Z,66.20
2017-04-24T00:57:30.644Z,66.30
2017-04-24T00:58:30.449Z,66.40
2017-04-24T00:59:30.457Z,66.30
2017-04-24T01:00:30.220Z,66.50
2017-04-24T01:01:30.836Z,68.50
2017-04-24T01:02:31.349Z,68.20
2017-04-24T01:03:31.880Z,68.60
2017-04-24T01:04:31.632Z,69.20
2017-04-24T01:05:31.364Z,69.20
2017-04-24T01:06:31.896Z,69.80
2017-04-24T01:07:31.672Z,70.60
2017-04-24T01:08:31.457Z,70.80
2017-04-24T01:09:31.244Z,70.90
2017-04-24T01:10:31.032Z,70.90
2017-04-24T01:11:30.812Z,70.60
2017-04-24T01:12:30.592Z,70.30
2017-04-24T01:13:30.860Z,70.40
2017-04-24T01:14:30.619Z,70.20
2017-04-24T01:15:31.148Z,69.50
2017-04-24T01:16:30.932Z,69.00
2017-04-24T01:17:31.453Z,69.20
2017-04-24T01:18:31.600Z,69.30
2017-04-24T01:19:31.348Z,69.30
2017-04-24T01:20:31.876Z,69.30
2017-04-24T01:21:32.360Z,69.10
2017-04-24T01:22:32.340Z,68.80
2017-04-24T01:23:32.136Z,68.20
2017-04-24T01:24:31.932Z,67.70
2017-04-24T01:25:31.696Z,67.70
2017-04-24T01:26:32.262Z,68.10
2017-04-24T01:27:32.029Z,67.60
2017-04-24T01:28:32.612Z,68.40
2017-04-24T01:29:32.568Z,69.00
2017-04-24T01:30:32.392Z,68.80
2017-04-24T01:31:32.893Z,68.30
2017-04-24T01:32:32.661Z,68.20
2017-04-24T01:33:33.244Z,68.20
2017-04-24T01:34:33.220Z,68.20
2017-04-24T01:35:33.012Z,68.10
2017-04-24T01:36:32.775Z,68.10
2017-04-24T01:37:32.516Z,68.00
2017-04-24T01:38:32.300Z,68.00
2017-04-24T01:39:32.892Z,67.50
2017-04-24T01:40:32.692Z,67.50
2017-04-24T01:41:32.451Z,67.70
2017-04-24T01:42:32.239Z,67.40
2017-04-24T01:43:31.973Z,67.00
2017-04-24T01:44:31.735Z,66.90
2017-04-24T01:45:32.300Z,66.70
2017-04-24T01:46:32.080Z,66.80
2017-04-24T01:47:31.890Z,67.10
2017-04-24T01:48:31.607Z,67.60
2017-04-24T01:49:31.379Z,67.50
2017-04-24T01:50:31.156Z,67.20
2017-04-24T01:51:30.972Z,66.90
2017-04-24T01:52:30.760Z,66.40
2017-04-24T01:53:31.273Z,66.30
2017-04-24T01:54:31.776Z,65.80
2017-04-24T01:55:32.356Z,65.70
2017-04-24T01:56:32.148Z,65.70
2017-04-24T01:57:31.943Z,66.10
2017-04-24T01:58:31.761Z,66.70
2017-04-24T01:59:31.531Z,66.50
2017-04-24T02:00:31.331Z,65.90
2017-04-24T02:01:31.104Z,66.30
2017-04-24T02:02:31.760Z,66.40
2017-04-24T02:03:31.688Z,66.40
2017-04-24T02:04:31.491Z,66.40
2017-04-24T02:05:31.276Z,66.50
2017-04-24T02:06:31.119Z,66.80
2017-04-24T02:08:30.953Z,67.40
2017-04-24T02:09:32.000Z,67.60
2017-04-24T02:10:31.755Z,67.80
2017-04-24T02:11:31.524Z,68.00
2017-04-24T02:12:31.312Z,67.50
2017-04-24T02:13:31.152Z,66.50
2017-04-24T02:14:31.039Z,66.80
2017-04-24T02:15:31.503Z,67.10
2017-04-24T02:16:31.284Z,67.10
2017-04-24T02:17:31.107Z,67.40
2017-04-24T02:18:31.680Z,67.60
2017-04-24T02:19:31.403Z,67.40
2017-04-24T02:20:31.219Z,67.70
2017-04-24T02:21:31.028Z,68.30
2017-04-24T02:22:30.835Z,68.50
2017-04-24T02:23:31.392Z,68.50
2017-04-24T02:24:31.183Z,68.60
2017-04-24T02:25:30.995Z,68.50
2017-04-24T02:26:30.755Z,68.30
2017-04-24T02:27:31.327Z,67.80
2017-04-24T02:28:31.079Z,68.40
2017-04-24T02:29:31.571Z,68.80
2017-04-24T02:30:31.356Z,69.30
2017-04-24T02:31:31.139Z,69.20
2017-04-24T02:32:30.931Z,69.20
2017-04-24T02:33:30.751Z,69.20
2017-04-24T02:34:30.544Z,68.90
2017-04-24T02:35:30.320Z,69.20
2017-04-24T02:36:30.832Z,69.20
2017-04-24T02:37:31.381Z,68.80
2017-04-24T02:38:31.168Z,69.30
2017-04-24T02:39:30.987Z,68.40
2017-04-24T02:40:30.775Z,68.40
2017-04-24T02:41:30.570Z,68.20
2017-04-24T02:42:30.443Z,67.70
2017-04-24T02:43:30.224Z,68.10
2017-04-24T02:44:30.316Z,68.00
2017-04-24T02:45:30.059Z,67.60
2017-04-24T02:46:31.099Z,68.60
2017-04-24T02:47:31.611Z,67.60
2017-04-24T02:48:32.131Z,67.30
2017-04-24T02:49:32.779Z,67.30
2017-04-24T02:50:32.699Z,67.40
2017-04-24T02:51:32.511Z,67.40
2017-04-24T02:52:32.280Z,67.40
2017-04-24T02:53:32.046Z,67.90
2017-04-24T02:54:31.827Z,66.50
2017-04-24T02:55:33.091Z,66.50
2017-04-24T02:56:32.863Z,66.40
2017-04-24T02:57:32.687Z,66.30
2017-04-24T02:58:32.555Z,66.70
2017-04-24T02:59:33.023Z,67.40
2017-04-24T03:00:33.562Z,67.80
2017-04-24T03:01:33.327Z,67.80
2017-04-24T03:02:33.077Z,68.50
2017-04-24T03:03:33.054Z,68.70
2017-04-24T03:04:33.923Z,69.10
2017-04-24T03:05:33.686Z,69.30
2017-04-24T03:06:34.255Z,69.10
2017-04-24T03:07:34.019Z,69.10
2017-04-24T03:08:33.799Z,69.10
2017-04-24T03:09:34.299Z,68.80
2017-04-24T03:10:34.062Z,68.70
2017-04-24T03:11:33.823Z,68.00
2017-04-24T03:12:34.367Z,68.00
2017-04-24T03:13:34.207Z,68.20
2017-04-24T03:14:33.975Z,68.60
2017-04-24T03:15:33.718Z,68.80
2017-04-24T03:16:33.442Z,69.10
2017-04-24T03:17:33.956Z,69.10
2017-04-24T03:18:34.459Z,69.20
2017-04-24T03:19:34.219Z,68.60
2017-04-24T03:20:33.990Z,68.50
2017-04-24T03:21:33.747Z,69.50
2017-04-24T03:22:33.519Z,68.40
2017-04-24T03:23:33.334Z,68.20
2017-04-24T03:24:33.150Z,68.60
2017-04-24T03:25:32.930Z,68.90
2017-04-24T03:26:32.674Z,68.80
2017-04-24T03:27:33.220Z,68.20
2017-04-24T03:28:32.994Z,67.70
2017-04-24T03:29:32.750Z,67.10
2017-04-24T03:30:32.514Z,66.90
2017-04-24T03:31:33.050Z,67.40
2017-04-24T03:32:32.846Z,67.50
2017-04-24T03:33:32.595Z,68.30
2017-04-24T03:34:32.378Z,67.00
2017-04-24T03:35:32.442Z,67.20
2017-04-24T03:36:32.958Z,66.80
2017-04-24T03:37:33.494Z,66.50
2017-04-24T03:38:33.267Z,67.30
2017-04-24T03:39:33.070Z,67.00
2017-04-24T03:40:33.582Z,67.50
2017-04-24T03:41:34.063Z,68.00
2017-04-24T03:42:33.807Z,68.20
2017-04-24T03:43:34.336Z,68.20
2017-04-24T03:44:34.866Z,67.80
2017-04-24T03:45:34.619Z,67.90
2017-04-24T03:46:34.382Z,67.90
2017-04-24T03:47:34.166Z,68.20
2017-04-24T03:48:33.967Z,68.60
2017-04-24T03:49:33.726Z,68.60
2017-04-24T03:50:33.498Z,68.70
2017-04-24T03:51:33.258Z,68.90
2017-04-24T03:52:33.802Z,68.50
2017-04-24T03:53:33.570Z,68.40
2017-04-24T03:54:34.094Z,69.00
2017-04-24T03:55:34.742Z,68.50
2017-04-24T03:56:35.270Z,69.00
2017-04-24T03:57:35.078Z,68.20
2017-04-24T03:58:34.882Z,67.20
2017-04-24T03:59:35.294Z,66.70
2017-04-24T04:00:35.149Z,67.00
2017-04-24T04:01:34.922Z,67.20
2017-04-24T04:02:34.706Z,67.00
2017-04-24T04:03:34.555Z,66.60
2017-04-24T04:04:35.070Z,67.60
2017-04-24T04:05:34.858Z,66.90
2017-04-24T04:06:34.665Z,67.60
2017-04-24T04:07:34.450Z,67.60
2017-04-24T04:08:34.238Z,67.90
2017-04-24T04:09:34.730Z,68.40
2017-04-24T04:10:34.522Z,68.40
2017-04-24T04:11:34.390Z,68.60
2017-04-24T04:12:34.262Z,68.60
2017-04-24T04:13:34.082Z,68.40
2017-04-24T04:14:34.202Z,68.20
2017-04-24T04:15:33.998Z,68.00
2017-04-24T04:16:33.878Z,69.30
2017-04-24T04:17:34.398Z,68.50
2017-04-24T04:18:34.203Z,68.20
2017-04-24T04:19:33.998Z,67.60
2017-04-24T04:20:33.773Z,67.10
2017-04-24T04:21:33.586Z,66.20
2017-04-24T04:22:33.374Z,66.20
2017-04-24T04:23:33.199Z,67.00
2017-04-24T04:24:33.010Z,66.50
2017-04-24T04:25:33.586Z,65.90
2017-04-24T04:26:33.385Z,66.30
2017-04-24T04:27:33.962Z,65.30
2017-04-24T04:28:33.682Z,64.90
2017-04-24T04:29:33.454Z,65.10
2017-04-24T04:30:33.250Z,65.20
2017-04-24T04:31:33.001Z,65.90
2017-04-24T04:32:33.506Z,66.00
2017-04-24T04:33:33.505Z,66.40
2017-04-24T04:34:33.258Z,67.80
2017-04-24T04:35:33.010Z,67.30
2017-04-24T04:36:32.813Z,67.50
2017-04-24T04:37:32.606Z,67.50
2017-04-24T04:38:32.361Z,68.20
2017-04-24T04:39:32.133Z,69.20
2017-04-24T04:40:32.705Z,69.50
2017-04-24T04:41:32.597Z,69.90
2017-04-24T04:42:32.345Z,70.10
2017-04-24T04:43:32.094Z,70.70
2017-04-24T04:44:31.875Z,71.00
2017-04-24T04:45:31.709Z,70.60
2017-04-24T04:46:31.482Z,70.20
2017-04-24T04:47:31.326Z,71.10
2017-04-24T04:48:31.092Z,70.10
2017-04-24T04:49:30.850Z,70.00
2017-04-24T04:50:30.601Z,70.00
2017-04-24T04:51:30.377Z,69.90
2017-04-24T04:52:30.186Z,69.80
2017-04-24T04:53:30.025Z,69.80
2017-04-24T04:54:29.803Z,70.00
2017-04-24T04:55:29.578Z,70.50
2017-04-24T04:56:29.389Z,70.90
2017-04-24T04:57:29.162Z,70.90
2017-04-24T04:58:29.754Z,70.80
2017-04-24T04:59:29.554Z,70.70
2017-04-24T05:00:29.309Z,70.60
2017-04-24T05:01:29.837Z,70.10
2017-04-24T05:02:29.829Z,69.60
2017-04-24T05:03:29.617Z,69.00
2017-04-24T05:04:29.414Z,68.80
2017-04-24T05:05:29.190Z,69.00
2017-04-24T05:06:28.978Z,69.40
2017-04-24T05:07:28.769Z,70.70
2017-04-24T05:08:28.533Z,71.40
2017-04-24T05:09:29.057Z,71.30
2017-04-24T05:10:29.569Z,70.90
2017-04-24T05:11:30.085Z,70.70
2017-04-24T05:12:31.430Z,70.90
2017-04-24T05:13:31.917Z,71.00
2017-04-24T05:14:31.729Z,70.80
2017-04-24T05:15:31.493Z,71.20
2017-04-24T05:16:31.253Z,71.60
2017-04-24T05:17:31.801Z,71.60
2017-04-24T05:18:31.581Z,71.70
2017-04-24T05:19:31.393Z,71.70
2017-04-24T05:20:31.165Z,71.90
2017-04-24T05:21:31.709Z,72.20
2017-04-24T05:22:31.505Z,73.40
2017-04-24T05:23:31.270Z,72.40
2017-04-24T05:24:31.081Z,72.90
2017-04-24T05:25:30.849Z,72.90
2017-04-24T05:26:30.661Z,72.80
2017-04-24T05:27:30.421Z,72.40
2017-04-24T05:28:30.241Z,71.70
2017-04-24T05:29:30.069Z,71.30
2017-04-24T05:30:29.821Z,71.50
2017-04-24T05:31:29.597Z,71.40
2017-04-24T05:32:30.449Z,71.20
2017-04-24T05:33:31.233Z,71.10
2017-04-24T05:35:30.989Z,71.00
2017-04-24T05:36:30.753Z,71.10
2017-04-24T05:37:31.241Z,72.20
2017-04-24T05:38:31.009Z,71.60
2017-04-24T05:39:30.805Z,71.60
2017-04-24T05:40:30.581Z,72.70
2017-04-24T05:41:31.169Z,72.90
2017-04-24T05:42:30.941Z,72.80
2017-04-24T05:43:30.729Z,71.80
2017-04-24T05:44:30.562Z,71.60
2017-04-24T05:45:30.393Z,71.60
2017-04-24T05:46:30.188Z,70.60
2017-04-24T05:47:29.937Z,70.40
2017-04-24T05:48:29.746Z,70.30
2017-04-24T05:49:29.517Z,70.60
2017-04-24T05:50:30.053Z,70.60
2017-04-24T05:51:29.801Z,70.80
2017-04-24T05:52:29.568Z,70.90
2017-04-24T05:53:29.352Z,70.90
2017-04-24T05:54:29.121Z,71.20
2017-04-24T05:55:28.901Z,71.60
2017-04-24T05:56:28.701Z,71.80
2017-04-24T05:57:29.108Z,72.10
2017-04-24T05:58:28.857Z,71.70
2017-04-24T05:59:29.353Z,71.70
2017-04-24T06:00:29.109Z,71.30
2017-04-24T06:01:28.888Z,70.90
2017-04-24T06:02:29.412Z,71.20
2017-04-24T06:03:29.468Z,70.70
2017-04-24T06:04:29.209Z,70.30
2017-04-24T06:05:29.045Z,70.10
2017-04-24T06:06:28.897Z,69.90
2017-04-24T06:07:29.441Z,70.90
2017-04-24T06:08:29.257Z,70.60
2017-04-24T06:09:29.061Z,69.90
2017-04-24T06:10:28.824Z,68.70
2017-04-24T06:11:29.501Z,68.40
2017-04-24T06:12:29.972Z,67.80
2017-04-24T06:13:30.561Z,68.40
2017-04-24T06:14:30.360Z,68.10
2017-04-24T06:15:30.952Z,68.20
2017-04-24T06:16:30.780Z,67.80
2017-04-24T06:17:30.590Z,68.00
2017-04-24T06:18:30.380Z,67.30
2017-04-24T06:19:30.148Z,67.20
2017-04-24T06:20:29.936Z,67.80
2017-04-24T06:21:29.740Z,67.40
2017-04-24T06:22:29.537Z,66.80
2017-04-24T06:23:30.092Z,66.70
2017-04-24T06:24:29.864Z,66.60
2017-04-24T06:25:29.633Z,66.90
2017-04-24T06:26:29.501Z,65.30
2017-04-24T06:27:29.300Z,64.70
2017-04-24T06:28:29.084Z,62.60
2017-04-24T06:29:28.861Z,62.40
2017-04-24T06:30:29.412Z,61.80
2017-04-24T06:31:29.180Z,62.40
2017-04-24T06:32:29.840Z,62.90
2017-04-24T06:33:30.521Z,63.40
2017-04-24T06:34:31.031Z,63.80
2017-04-24T06:35:32.052Z,63.30
2017-04-24T06:36:32.944Z,63.20
2017-04-24T06:37:32.752Z,62.30
2017-04-24T06:38:38.552Z,61.90
2017-04-24T06:39:44.844Z,61.90
2017-04-24T06:40:44.640Z,61.20
2017-04-24T06:41:44.420Z,61.90
2017-04-24T06:42:44.372Z,61.00
2017-04-24T06:43:44.125Z,61.00
2017-04-24T06:44:44.617Z,59.10
2017-04-24T06:45:45.092Z,59.10
2017-04-24T06:46:44.868Z,59.90
2017-04-24T06:47:44.643Z,58.80
2017-04-24T06:48:45.208Z,59.50
2017-04-24T06:49:45.027Z,59.30
2017-04-24T06:50:44.775Z,59.80
2017-04-24T06:51:44.512Z,59.40
2017-04-24T06:52:44.304Z,59.00
2017-04-24T06:53:44.215Z,59.10
2017-04-24T06:54:43.960Z,59.60
2017-04-24T06:55:43.724Z,59.10
2017-04-24T06:56:43.527Z,58.60
2017-04-24T06:57:43.280Z,58.20
2017-04-24T06:58:43.035Z,58.30
2017-04-24T06:59:43.671Z,58.10
2017-04-24T07:00:43.471Z,57.20
2017-04-24T07:01:43.272Z,56.40
2017-04-24T07:02:46.180Z,56.50
2017-04-24T07:03:46.017Z,56.10
2017-04-24T07:04:45.919Z,55.40
2017-04-24T07:05:46.384Z,54.50
2017-04-24T07:06:46.880Z,54.60
2017-04-24T07:07:46.815Z,52.30
2017-04-24T07:08:47.340Z,52.50
2017-04-24T07:09:47.828Z,51.60
2017-04-24T07:10:47.707Z,50.20
2017-04-24T07:11:47.451Z,50.60
2017-04-24T07:12:47.956Z,50.60
2017-04-24T07:13:47.772Z,50.20
2017-04-24T07:14:47.860Z,49.80
2017-04-24T07:15:47.639Z,49.60
2017-04-24T07:16:48.351Z,49.10
2017-04-24T07:17:48.607Z,49.20
2017-04-24T07:18:48.471Z,49.80
2017-04-24T07:19:49.232Z,48.80
2017-04-24T07:20:48.932Z,48.90
2017-04-24T07:21:49.103Z,48.80
2017-04-24T07:22:49.723Z,48.80
2017-04-24T07:23:50.275Z,47.90
2017-04-24T07:24:50.072Z,48.30
2017-04-24T07:25:49.825Z,48.50
2017-04-24T07:26:49.567Z,49.20
2017-04-24T07:27:49.876Z,47.30
2017-04-24T07:28:49.692Z,47.70
2017-04-24T07:29:49.483Z,47.00
2017-04-24T07:30:49.283Z,48.10
2017-04-24T07:31:49.067Z,48.00
2017-04-24T07:32:49.523Z,46.80
2017-04-24T07:33:49.388Z,47.20
2017-04-24T07:34:49.724Z,47.40
2017-04-24T07:35:51.344Z,47.90
2017-04-24T07:36:51.179Z,46.90
2017-04-24T07:37:50.963Z,45.60
2017-04-24T07:38:50.784Z,46.20
2017-04-24T07:39:50.587Z,46.10
2017-04-24T07:40:50.675Z,45.30
2017-04-24T07:41:50.487Z,45.60
2017-04-24T07:42:50.263Z,46.20
2017-04-24T07:43:50.116Z,45.70
2017-04-24T07:45:50.203Z,46.10
2017-04-24T07:46:49.967Z,46.10
2017-04-24T07:47:49.715Z,45.90
2017-04-24T07:48:49.492Z,47.20
2017-04-24T07:49:49.323Z,46.70
2017-04-24T07:50:49.066Z,46.40
2017-04-24T07:51:49.495Z,45.60
2017-04-24T07:52:49.976Z,45.50
2017-04-24T07:53:50.527Z,44.20
2017-04-24T07:54:50.463Z,45.10
2017-04-24T07:55:50.320Z,46.20
2017-04-24T07:56:50.106Z,45.40
2017-04-24T07:57:50.771Z,46.30
2017-04-24T07:58:50.595Z,45.60
2017-04-24T07:59:51.018Z,44.70
2017-04-24T08:00:50.867Z,45.40
2017-04-24T08:01:50.659Z,46.60
2017-04-24T08:02:51.239Z,45.00
2017-04-24T08:03:51.224Z,45.50
2017-04-24T08:04:51.091Z,44.60
2017-04-24T08:05:50.847Z,44.50
2017-04-24T08:06:50.621Z,44.40
2017-04-24T08:07:51.243Z,44.50
2017-04-24T08:09:52.579Z,44.10
2017-04-24T08:10:53.139Z,44.20
2017-04-24T08:11:53.147Z,43.90
2017-04-24T08:12:52.895Z,44.70
2017-04-24T08:13:52.842Z,45.40
2017-04-24T08:14:52.696Z,44.50
2017-04-24T08:15:53.155Z,44.20
2017-04-24T08:16:52.923Z,44.90
2017-04-24T08:17:52.699Z,44.20
2017-04-24T08:18:52.558Z,45.00
2017-04-24T08:19:52.514Z,44.10
2017-04-24T08:20:52.287Z,43.40
2017-04-24T08:21:53.107Z,44.00
2017-04-24T08:22:53.191Z,44.20
2017-04-24T08:23:53.015Z,44.20
2017-04-24T08:24:52.763Z,43.80
2017-04-24T08:25:52.574Z,45.20
2017-04-24T08:26:52.366Z,44.50
2017-04-24T08:27:52.211Z,44.10
2017-04-24T08:28:52.098Z,43.40
2017-04-24T08:29:52.658Z,41.50
2017-04-24T08:30:52.519Z,41.00
2017-04-24T08:31:52.310Z,42.10
2017-04-24T08:32:52.123Z,43.10
2017-04-24T08:33:51.910Z,42.70
2017-04-24T08:34:52.310Z,42.20
2017-04-24T08:35:52.214Z,42.70
2017-04-24T08:36:52.044Z,43.50
2017-04-24T08:37:51.918Z,42.60
2017-04-24T08:38:51.713Z,42.70
2017-04-24T08:39:52.274Z,42.40
2017-04-24T08:40:52.799Z,43.80
2017-04-24T08:41:52.994Z,43.70
2017-04-24T08:42:52.803Z,42.40
2017-04-24T08:43:52.562Z,41.40
2017-04-24T08:44:53.043Z,42.90
2017-04-24T08:45:52.822Z,42.70
2017-04-24T08:46:52.694Z,42.50
2017-04-24T08:47:52.515Z,41.80
2017-04-24T08:48:52.394Z,41.80
2017-04-24T08:49:52.174Z,40.10
2017-04-24T08:50:51.931Z,40.70
2017-04-24T08:51:51.646Z,40.90
2017-04-24T08:52:51.396Z,38.10
2017-04-24T08:53:52.654Z,39.30
2017-04-24T08:54:52.414Z,38.40
2017-04-24T08:55:52.634Z,38.70
2017-04-24T08:56:53.102Z,37.20
2017-04-24T08:57:52.850Z,37.80
2017-04-24T08:58:53.394Z,36.70
2017-04-24T08:59:53.159Z,38.00
2017-04-24T09:00:52.942Z,41.20
2017-04-24T09:01:52.801Z,40.90
2017-04-24T09:02:52.562Z,40.10
2017-04-24T09:03:53.238Z,41.00
2017-04-24T09:04:53.318Z,40.90
2017-04-24T09:05:53.850Z,41.90
2017-04-24T09:06:53.613Z,41.50
2017-04-24T09:07:53.365Z,39.90
2017-04-24T09:08:53.074Z,39.90
2017-04-24T09:09:52.902Z,39.20
2017-04-24T09:10:53.094Z,39.70
2017-04-24T09:11:52.866Z,40.00
2017-04-24T09:12:52.630Z,38.30
2017-04-24T09:13:53.158Z,40.30
2017-04-24T09:15:52.901Z,40.00
2017-04-24T09:16:52.685Z,40.10
2017-04-24T09:17:52.530Z,39.70
2017-04-24T09:18:52.322Z,40.30
2017-04-24T09:19:52.158Z,40.90
2017-04-24T09:20:52.022Z,40.90
2017-04-24T09:21:52.377Z,39.80
2017-04-24T09:22:52.145Z,40.30
2017-04-24T09:23:51.919Z,41.40
2017-04-24T09:24:51.769Z,43.50
2017-04-24T09:25:51.549Z,42.10
2017-04-24T09:26:51.370Z,40.90
2017-04-24T09:27:51.922Z,40.80
2017-04-24T09:28:52.437Z,40.10
2017-04-24T09:29:52.973Z,39.70
2017-04-24T09:30:52.777Z,39.50
2017-04-24T09:31:52.541Z,39.60
2017-04-24T09:32:52.342Z,41.70
2017-04-24T09:33:52.542Z,41.00
2017-04-24T09:34:52.309Z,37.70
2017-04-24T09:35:52.113Z,37.40
2017-04-24T09:36:51.865Z,38.50
2017-04-24T09:37:51.670Z,40.70
2017-04-24T09:38:52.166Z,39.00
2017-04-24T09:39:51.933Z,38.30
2017-04-24T09:40:51.789Z,38.40
2017-04-24T09:42:51.954Z,37.50
2017-04-24T09:43:51.881Z,37.40
2017-04-24T09:44:51.629Z,37.80
2017-04-24T09:45:52.193Z,38.10
2017-04-24T09:46:51.922Z,37.30
2017-04-24T09:48:52.233Z,39.20
2017-04-24T09:49:52.489Z,37.80
2017-04-24T09:50:52.262Z,37.50
2017-04-24T09:51:52.233Z,36.80
2017-04-24T09:52:52.033Z,36.80
2017-04-24T09:53:51.797Z,36.90
2017-04-24T09:54:51.565Z,35.90
2017-04-24T09:55:51.345Z,35.80
2017-04-24T09:56:51.101Z,36.00
2017-04-24T09:57:51.641Z,36.90
2017-04-24T09:58:51.552Z,35.60
2017-04-24T09:59:51.364Z,34.30
2017-04-24T10:00:51.154Z,34.50
2017-04-24T10:01:50.905Z,35.30
2017-04-24T10:02:50.684Z,35.00
2017-04-24T10:03:50.497Z,36.70
2017-04-24T10:04:50.277Z,37.00
2017-04-24T10:05:50.053Z,34.60
2017-04-24T10:06:49.817Z,34.40
2017-04-24T10:07:50.413Z,35.30
2017-04-24T10:08:50.189Z,35.40
2017-04-24T10:09:50.027Z,35.70
2017-04-24T10:10:50.394Z,36.30
2017-04-24T10:11:50.181Z,35.80
2017-04-24T10:12:49.181Z,35.80
2017-04-24T10:13:49.133Z,37.30
2017-04-24T10:14:48.874Z,36.90
2017-04-24T10:15:48.688Z,35.60
2017-04-24T10:16:48.461Z,35.00
2017-04-24T10:17:48.969Z,37.60
2017-04-24T10:18:49.497Z,37.30
2017-04-24T10:19:50.093Z,37.20
2017-04-24T10:20:49.927Z,36.50
2017-04-24T10:21:49.692Z,37.50
2017-04-24T10:22:49.472Z,37.00
2017-04-24T10:23:49.282Z,37.20
2017-04-24T10:24:49.053Z,36.60
2017-04-24T10:25:48.972Z,37.20
2017-04-24T10:26:49.473Z,36.70
2017-04-24T10:27:49.253Z,35.60
2017-04-24T10:28:49.752Z,36.50
2017-04-24T10:29:49.613Z,37.20
2017-04-24T10:30:50.132Z,36.00
2017-04-24T10:31:49.900Z,36.30
2017-04-24T10:32:49.633Z,37.80
2017-04-24T10:33:49.408Z,36.50
2017-04-24T10:34:49.177Z,36.20
2017-04-24T10:35:48.970Z,34.40
2017-04-24T10:36:49.324Z,35.90
2017-04-24T10:37:49.081Z,34.50
2017-04-24T10:38:48.884Z,35.10
2017-04-24T10:39:48.652Z,35.40
2017-04-24T10:40:48.397Z,35.80
2017-04-24T10:41:48.929Z,36.50
2017-04-24T10:42:49.445Z,35.20
2017-04-24T10:43:49.994Z,33.70
2017-04-24T10:44:49.760Z,34.80
2017-04-24T10:45:50.289Z,35.80
2017-04-24T10:46:50.048Z,34.80
2017-04-24T10:47:49.784Z,36.10
2017-04-24T10:48:50.309Z,34.90
2017-04-24T10:49:50.868Z,34.50
2017-04-24T10:50:51.365Z,35.70
2017-04-24T10:51:51.129Z,35.20
2017-04-24T10:52:50.893Z,34.80
2017-04-24T10:53:50.772Z,34.60
2017-04-24T10:54:50.592Z,36.30
2017-04-24T10:55:50.369Z,36.90
2017-04-24T10:56:50.148Z,35.60
2017-04-24T10:57:49.908Z,34.40
2017-04-24T10:58:49.668Z,34.90
2017-04-24T10:59:50.224Z,36.50
2017-04-24T11:00:49.972Z,35.80
2017-04-24T11:01:50.529Z,33.60
2017-04-24T11:02:50.636Z,33.80
2017-04-24T11:03:50.439Z,33.60
2017-04-24T11:04:50.232Z,34.80
2017-04-24T11:05:49.989Z,33.50
2017-04-24T11:06:49.812Z,33.20
2017-04-24T11:07:49.560Z,35.00
2017-04-24T11:08:49.340Z,35.70
2017-04-24T11:09:49.160Z,36.10
2017-04-24T11:10:48.948Z,35.90
2017-04-24T11:11:48.692Z,33.40
2017-04-24T11:12:48.459Z,34.00
2017-04-24T11:13:48.265Z,34.00
2017-04-24T11:14:48.028Z,33.10
2017-04-24T11:15:47.840Z,34.20
2017-04-24T11:16:48.116Z,34.60
2017-04-24T11:17:47.904Z,33.00
2017-04-24T11:18:47.704Z,32.40
2017-04-24T11:19:47.584Z,33.40
2017-04-24T11:20:47.372Z,33.40
2017-04-24T11:21:47.180Z,33.30
2017-04-24T11:22:46.988Z,33.00
2017-04-24T11:23:46.767Z,33.90
2017-04-24T11:24:46.550Z,34.30
2017-04-24T11:25:47.104Z,32.00
2017-04-24T11:26:46.932Z,31.10
2017-04-24T11:27:46.734Z,32.20
2017-04-24T11:28:46.484Z,30.60
2017-04-24T11:29:46.260Z,30.90
2017-04-24T11:30:46.062Z,32.20
2017-04-24T11:31:45.916Z,32.60
2017-04-24T11:32:45.732Z,33.50
2017-04-24T11:33:45.552Z,32.70
2017-04-24T11:34:45.365Z,30.30
2017-04-24T11:35:45.160Z,30.60
2017-04-24T11:36:44.992Z,30.20
2017-04-24T11:37:45.552Z,31.80
2017-04-24T11:38:45.397Z,32.10
2017-04-24T11:39:45.188Z,31.90
2017-04-24T11:40:44.996Z,31.50
2017-04-24T11:41:44.832Z,31.20
2017-04-24T11:42:44.688Z,32.70
2017-04-24T11:43:44.464Z,32.10
2017-04-24T11:44:44.224Z,31.20
2017-04-24T11:45:45.160Z,30.40
2017-04-24T11:46:45.740Z,29.00
2017-04-24T11:47:45.580Z,28.80
2017-04-24T11:48:45.356Z,29.20
2017-04-24T11:49:45.141Z,30.80
2017-04-24T11:50:45.148Z,29.30
2017-04-24T11:51:44.946Z,30.40
2017-04-24T11:52:44.752Z,30.50
2017-04-24T11:53:44.564Z,29.50
2017-04-24T11:54:44.366Z,30.20
2017-04-24T11:55:44.191Z,32.80
2017-04-24T11:56:43.971Z,31.90
2017-04-24T11:57:43.728Z,32.40
2017-04-24T11:58:44.313Z,31.70
2017-04-24T11:59:44.960Z,30.90
2017-04-24T12:00:44.883Z,31.60
2017-04-24T12:01:45.444Z,31.60
2017-04-24T12:02:46.017Z,31.00
2017-04-24T12:03:45.858Z,31.70
2017-04-24T12:04:45.644Z,30.40
2017-04-24T12:05:45.447Z,30.00
2017-04-24T12:06:45.244Z,30.80
2017-04-24T12:07:45.456Z,30.80
2017-04-24T12:08:45.273Z,29.70
2017-04-24T12:09:45.207Z,30.70
2017-04-24T12:10:45.007Z,29.90
2017-04-24T12:11:45.512Z,31.30
2017-04-24T12:12:46.009Z,32.80
2017-04-24T12:13:45.792Z,31.00
2017-04-24T12:14:45.563Z,31.10
2017-04-24T12:15:45.356Z,30.00
2017-04-24T12:16:45.123Z,32.30
2017-04-24T12:17:45.691Z,31.60
2017-04-24T12:18:45.523Z,30.40
2017-04-24T12:19:45.336Z,31.30
2017-04-24T12:20:45.312Z,32.20
2017-04-24T12:21:45.248Z,32.30
2017-04-24T12:22:45.040Z,31.00
2017-04-24T12:23:44.835Z,30.70
2017-04-24T12:24:44.628Z,30.10
2017-04-24T12:25:44.427Z,31.10
2017-04-24T12:26:44.207Z,29.70
2017-04-24T12:27:44.008Z,30.70
2017-04-24T12:28:43.784Z,31.10
2017-04-24T12:29:44.352Z,29.90
2017-04-24T12:30:44.136Z,29.60
2017-04-24T12:31:43.967Z,29.80
2017-04-24T12:32:46.415Z,29.60
2017-04-24T12:33:46.228Z,30.00
2017-04-24T12:34:46.047Z,29.70
2017-04-24T12:35:45.844Z,28.90
2017-04-24T12:36:45.619Z,31.40
2017-04-24T12:37:45.404Z,30.50
2017-04-24T12:38:45.204Z,29.70
2017-04-24T12:39:45.028Z,29.40
2017-04-24T12:40:44.855Z,30.70
2017-04-24T12:41:44.703Z,29.90
2017-04-24T12:42:44.887Z,30.10
2017-04-24T12:43:44.679Z,29.80
2017-04-24T12:44:44.435Z,30.20
2017-04-24T12:45:44.264Z,29.00
2017-04-24T12:46:44.031Z,28.70
2017-04-24T12:47:43.822Z,28.50
2017-04-24T12:48:44.359Z,28.30
2017-04-24T12:49:44.208Z,29.10
2017-04-24T12:51:44.763Z,29.80
2017-04-24T12:52:45.287Z,29.90
2017-04-24T12:53:45.091Z,29.40
2017-04-24T12:54:44.888Z,29.70
2017-04-24T12:55:45.455Z,29.90
2017-04-24T12:56:45.463Z,30.60
2017-04-24T12:57:45.260Z,29.90
2017-04-24T12:58:45.072Z,28.70
2017-04-24T12:59:44.823Z,29.20
2017-04-24T13:00:44.695Z,28.70